sensor_id;sensor_type;location;lat;lon;timestamp;temperature;humidity
66576;SHT31;53428;47.686;16.584;2022-07-23T00:01:33;25.14;60.48
66576;SHT31;53428;47.686;16.584;2022-07-23T00:06:33;25.10;60.37
66576;SHT31;53428;47.686;16.584;2022-07-23T00:11:33;25.18;60.12
66576;SHT31;53428;47.686;16.584;2022-07-23T00:16:32;25.14;60.71
66576;SHT31;53428;47.686;16.584;2022-07-23T00:21:32;25.08;60.57
66576;SHT31;53428;47.686;16.584;2022-07-23T00:26:32;25.03;61.02
66576;SHT31;53428;47.686;16.584;2022-07-23T00:31:32;25.00;61.22
66576;SHT31;53428;47.686;16.584;2022-07-23T00:36:32;25.02;61.32
66576;SHT31;53428;47.686;16.584;2022-07-23T00:41:32;24.94;61.61
66576;SHT31;53428;47.686;16.584;2022-07-23T00:46:31;24.94;61.58
66576;SHT31;53428;47.686;16.584;2022-07-23T00:51:31;24.94;61.44
66576;SHT31;53428;47.686;16.584;2022-07-23T00:56:31;24.96;61.04
66576;SHT31;53428;47.686;16.584;2022-07-23T01:01:30;25.02;61.05
66576;SHT31;53428;47.686;16.584;2022-07-23T01:06:36;24.94;61.27
66576;SHT31;53428;47.686;16.584;2022-07-23T01:11:37;24.87;61.80
66576;SHT31;53428;47.686;16.584;2022-07-23T01:16:37;24.75;61.93
66576;SHT31;53428;47.686;16.584;2022-07-23T01:21:48;24.66;61.44
66576;SHT31;53428;47.686;16.584;2022-07-23T01:26:49;24.62;61.77
66576;SHT31;53428;47.686;16.584;2022-07-23T01:31:49;24.72;61.79
66576;SHT31;53428;47.686;16.584;2022-07-23T01:36:48;24.76;61.36
66576;SHT31;53428;47.686;16.584;2022-07-23T01:41:48;24.87;60.37
66576;SHT31;53428;47.686;16.584;2022-07-23T01:46:47;24.94;60.02
66576;SHT31;53428;47.686;16.584;2022-07-23T01:51:47;24.91;60.28
66576;SHT31;53428;47.686;16.584;2022-07-23T01:56:59;24.97;59.72
66576;SHT31;53428;47.686;16.584;2022-07-23T02:01:59;24.96;59.10
66576;SHT31;53428;47.686;16.584;2022-07-23T02:06:59;24.86;59.38
66576;SHT31;53428;47.686;16.584;2022-07-23T02:11:58;24.43;62.30
66576;SHT31;53428;47.686;16.584;2022-07-23T02:16:58;24.53;62.17
66576;SHT31;53428;47.686;16.584;2022-07-23T02:22:01;24.58;61.99
66576;SHT31;53428;47.686;16.584;2022-07-23T02:27:01;24.63;62.19
66576;SHT31;53428;47.686;16.584;2022-07-23T02:32:13;24.79;62.06
66576;SHT31;53428;47.686;16.584;2022-07-23T02:37:13;24.80;62.12
66576;SHT31;53428;47.686;16.584;2022-07-23T02:42:13;24.82;62.40
66576;SHT31;53428;47.686;16.584;2022-07-23T02:47:12;24.93;62.24
66576;SHT31;53428;47.686;16.584;2022-07-23T02:52:12;25.00;62.24
66576;SHT31;53428;47.686;16.584;2022-07-23T02:57:12;24.88;62.39
66576;SHT31;53428;47.686;16.584;2022-07-23T03:02:11;24.83;62.56
66576;SHT31;53428;47.686;16.584;2022-07-23T03:07:11;24.86;62.55
66576;SHT31;53428;47.686;16.584;2022-07-23T03:12:11;24.88;62.80
66576;SHT31;53428;47.686;16.584;2022-07-23T03:17:11;24.83;63.01
66576;SHT31;53428;47.686;16.584;2022-07-23T03:22:11;24.59;63.88
66576;SHT31;53428;47.686;16.584;2022-07-23T03:27:10;24.51;64.30
66576;SHT31;53428;47.686;16.584;2022-07-23T03:32:10;24.43;64.37
66576;SHT31;53428;47.686;16.584;2022-07-23T03:37:10;24.43;64.25
66576;SHT31;53428;47.686;16.584;2022-07-23T03:42:11;24.52;64.08
66576;SHT31;53428;47.686;16.584;2022-07-23T03:47:10;24.62;63.81
66576;SHT31;53428;47.686;16.584;2022-07-23T03:52:10;24.79;63.52
66576;SHT31;53428;47.686;16.584;2022-07-23T03:57:10;24.96;63.12
66576;SHT31;53428;47.686;16.584;2022-07-23T04:02:10;24.97;63.74
66576;SHT31;53428;47.686;16.584;2022-07-23T04:07:14;25.08;63.40
66576;SHT31;53428;47.686;16.584;2022-07-23T04:12:14;25.18;62.79
66576;SHT31;53428;47.686;16.584;2022-07-23T04:17:14;25.38;62.41
66576;SHT31;53428;47.686;16.584;2022-07-23T04:22:13;25.44;62.57
66576;SHT31;53428;47.686;16.584;2022-07-23T04:27:13;25.58;62.37
66576;SHT31;53428;47.686;16.584;2022-07-23T04:32:12;25.48;63.24
66576;SHT31;53428;47.686;16.584;2022-07-23T04:37:12;25.45;62.69
66576;SHT31;53428;47.686;16.584;2022-07-23T04:42:12;25.54;62.65
66576;SHT31;53428;47.686;16.584;2022-07-23T04:47:11;25.65;62.42
66576;SHT31;53428;47.686;16.584;2022-07-23T04:52:11;25.69;61.81
66576;SHT31;53428;47.686;16.584;2022-07-23T04:57:10;25.58;62.40
66576;SHT31;53428;47.686;16.584;2022-07-23T05:02:10;25.38;63.93
66576;SHT31;53428;47.686;16.584;2022-07-23T05:07:09;25.51;63.95
66576;SHT31;53428;47.686;16.584;2022-07-23T05:12:09;25.68;63.82
66576;SHT31;53428;47.686;16.584;2022-07-23T05:17:17;25.68;64.27
66576;SHT31;53428;47.686;16.584;2022-07-23T05:22:25;25.46;64.87
66576;SHT31;53428;47.686;16.584;2022-07-23T05:27:25;25.52;64.59
66576;SHT31;53428;47.686;16.584;2022-07-23T05:32:24;25.48;64.36
66576;SHT31;53428;47.686;16.584;2022-07-23T05:37:24;25.45;64.82
66576;SHT31;53428;47.686;16.584;2022-07-23T05:42:23;25.61;64.58
66576;SHT31;53428;47.686;16.584;2022-07-23T05:47:23;25.72;64.57
66576;SHT31;53428;47.686;16.584;2022-07-23T05:52:22;26.00;64.03
66576;SHT31;53428;47.686;16.584;2022-07-23T05:57:22;26.31;63.32
66576;SHT31;53428;47.686;16.584;2022-07-23T06:02:21;26.54;62.03
66576;SHT31;53428;47.686;16.584;2022-07-23T06:07:21;26.65;61.13
66576;SHT31;53428;47.686;16.584;2022-07-23T06:12:20;26.81;60.62
66576;SHT31;53428;47.686;16.584;2022-07-23T06:17:23;27.16;60.08
66576;SHT31;53428;47.686;16.584;2022-07-23T06:22:23;27.80;58.50
66576;SHT31;53428;47.686;16.584;2022-07-23T06:27:23;28.11;57.60
66576;SHT31;53428;47.686;16.584;2022-07-23T06:32:22;28.42;56.38
66576;SHT31;53428;47.686;16.584;2022-07-23T06:37:22;28.48;56.57
66576;SHT31;53428;47.686;16.584;2022-07-23T06:42:21;28.70;55.52
66576;SHT31;53428;47.686;16.584;2022-07-23T06:47:21;28.97;54.64
66576;SHT31;53428;47.686;16.584;2022-07-23T06:52:21;29.00;54.10
66576;SHT31;53428;47.686;16.584;2022-07-23T06:57:20;28.87;54.48
66576;SHT31;53428;47.686;16.584;2022-07-23T07:02:20;29.17;53.24
66576;SHT31;53428;47.686;16.584;2022-07-23T07:07:20;28.94;53.66
66576;SHT31;53428;47.686;16.584;2022-07-23T07:12:19;29.32;53.31
66576;SHT31;53428;47.686;16.584;2022-07-23T07:17:19;29.45;52.77
66576;SHT31;53428;47.686;16.584;2022-07-23T07:22:18;29.62;52.26
66576;SHT31;53428;47.686;16.584;2022-07-23T07:27:18;29.82;51.53
66576;SHT31;53428;47.686;16.584;2022-07-23T07:32:18;30.10;50.55
66576;SHT31;53428;47.686;16.584;2022-07-23T07:37:17;29.83;51.35
66576;SHT31;53428;47.686;16.584;2022-07-23T07:42:17;30.28;50.11
66576;SHT31;53428;47.686;16.584;2022-07-23T07:47:17;30.69;48.79
66576;SHT31;53428;47.686;16.584;2022-07-23T07:52:16;30.92;47.49
66576;SHT31;53428;47.686;16.584;2022-07-23T07:57:16;31.13;43.20
66576;SHT31;53428;47.686;16.584;2022-07-23T08:02:16;31.24;42.63
66576;SHT31;53428;47.686;16.584;2022-07-23T08:07:20;31.40;43.59
66576;SHT31;53428;47.686;16.584;2022-07-23T08:12:19;31.41;43.66
66576;SHT31;53428;47.686;16.584;2022-07-23T08:17:22;31.81;42.53
66576;SHT31;53428;47.686;16.584;2022-07-23T08:22:25;31.96;39.46
66576;SHT31;53428;47.686;16.584;2022-07-23T08:27:34;32.08;38.61
66576;SHT31;53428;47.686;16.584;2022-07-23T08:32:51;32.35;38.05
66576;SHT31;53428;47.686;16.584;2022-07-23T08:37:51;32.64;38.22
66576;SHT31;53428;47.686;16.584;2022-07-23T08:42:51;32.57;37.51
66576;SHT31;53428;47.686;16.584;2022-07-23T08:47:56;32.19;37.95
66576;SHT31;53428;47.686;16.584;2022-07-23T08:52:56;32.44;36.82
66576;SHT31;53428;47.686;16.584;2022-07-23T08:57:57;32.47;37.64
66576;SHT31;53428;47.686;16.584;2022-07-23T09:03:02;32.52;37.06
66576;SHT31;53428;47.686;16.584;2022-07-23T09:08:13;32.91;36.35
66576;SHT31;53428;47.686;16.584;2022-07-23T12:13:57;30.00;48.30
66576;SHT31;53428;47.686;16.584;2022-07-23T12:18:56;26.50;65.10
66576;SHT31;53428;47.686;16.584;2022-07-23T12:24:06;23.46;79.39
66576;SHT31;53428;47.686;16.584;2022-07-23T12:29:07;22.71;79.62
66576;SHT31;53428;47.686;16.584;2022-07-23T12:34:14;22.17;85.62
66576;SHT31;53428;47.686;16.584;2022-07-23T12:39:32;22.10;88.15
66576;SHT31;53428;47.686;16.584;2022-07-23T12:44:31;22.29;86.44
66576;SHT31;53428;47.686;16.584;2022-07-23T12:49:30;22.53;82.90
66576;SHT31;53428;47.686;16.584;2022-07-23T12:54:29;22.43;84.38
66576;SHT31;53428;47.686;16.584;2022-07-23T12:59:30;22.13;83.56
66576;SHT31;53428;47.686;16.584;2022-07-23T13:04:30;21.96;87.18
66576;SHT31;53428;47.686;16.584;2022-07-23T13:09:33;22.12;87.12
66576;SHT31;53428;47.686;16.584;2022-07-23T13:14:32;22.16;84.06
66576;SHT31;53428;47.686;16.584;2022-07-23T13:19:32;22.26;83.32
66576;SHT31;53428;47.686;16.584;2022-07-23T13:24:31;21.81;84.82
66576;SHT31;53428;47.686;16.584;2022-07-23T13:29:30;21.77;86.61
66576;SHT31;53428;47.686;16.584;2022-07-23T13:34:30;22.06;86.21
66576;SHT31;53428;47.686;16.584;2022-07-23T13:39:29;22.60;86.09
66576;SHT31;53428;47.686;16.584;2022-07-23T13:44:28;23.53;84.73
66576;SHT31;53428;47.686;16.584;2022-07-23T13:49:28;23.69;85.93
66576;SHT31;53428;47.686;16.584;2022-07-23T13:54:27;23.80;86.63
66576;SHT31;53428;47.686;16.584;2022-07-23T13:59:26;24.01;86.14
66576;SHT31;53428;47.686;16.584;2022-07-23T14:04:26;24.19;85.25
66576;SHT31;53428;47.686;16.584;2022-07-23T14:09:26;24.49;83.72
66576;SHT31;53428;47.686;16.584;2022-07-23T14:14:26;26.03;78.66
66576;SHT31;53428;47.686;16.584;2022-07-23T14:19:25;26.50;76.60
66576;SHT31;53428;47.686;16.584;2022-07-23T14:24:25;26.03;77.97
66576;SHT31;53428;47.686;16.584;2022-07-23T14:29:24;26.78;78.17
66576;SHT31;53428;47.686;16.584;2022-07-23T14:34:23;26.74;77.88
66576;SHT31;53428;47.686;16.584;2022-07-23T14:39:22;26.52;76.03
66576;SHT31;53428;47.686;16.584;2022-07-23T14:44:22;29.19;69.28
66576;SHT31;53428;47.686;16.584;2022-07-23T14:49:21;31.51;59.66
66576;SHT31;53428;47.686;16.584;2022-07-23T14:54:21;32.43;57.30
66576;SHT31;53428;47.686;16.584;2022-07-23T14:59:21;33.18;52.84
66576;SHT31;53428;47.686;16.584;2022-07-23T15:04:20;34.65;48.98
66576;SHT31;53428;47.686;16.584;2022-07-23T15:09:20;36.28;43.84
66576;SHT31;53428;47.686;16.584;2022-07-23T15:14:19;35.54;42.77
66576;SHT31;53428;47.686;16.584;2022-07-23T15:19:19;35.51;43.87
66576;SHT31;53428;47.686;16.584;2022-07-23T15:24:18;37.37;39.77
66576;SHT31;53428;47.686;16.584;2022-07-23T15:29:17;38.36;38.68
66576;SHT31;53428;47.686;16.584;2022-07-23T15:34:16;36.45;43.00
66576;SHT31;53428;47.686;16.584;2022-07-23T15:39:16;37.24;42.47
66576;SHT31;53428;47.686;16.584;2022-07-23T15:44:15;39.15;36.44
66576;SHT31;53428;47.686;16.584;2022-07-23T15:49:14;37.46;38.68
66576;SHT31;53428;47.686;16.584;2022-07-23T15:54:13;37.90;37.72
66576;SHT31;53428;47.686;16.584;2022-07-23T15:59:13;38.51;36.88
66576;SHT31;53428;47.686;16.584;2022-07-23T16:04:12;37.96;37.83
66576;SHT31;53428;47.686;16.584;2022-07-23T16:09:11;35.89;41.65
66576;SHT31;53428;47.686;16.584;2022-07-23T16:14:11;36.86;40.07
66576;SHT31;53428;47.686;16.584;2022-07-23T16:19:10;37.06;39.44
66576;SHT31;53428;47.686;16.584;2022-07-23T16:24:09;38.43;36.07
66576;SHT31;53428;47.686;16.584;2022-07-23T16:29:09;36.12;39.45
66576;SHT31;53428;47.686;16.584;2022-07-23T16:34:08;35.82;38.73
66576;SHT31;53428;47.686;16.584;2022-07-23T16:39:07;35.25;36.02
66576;SHT31;53428;47.686;16.584;2022-07-23T16:44:06;35.80;34.64
66576;SHT31;53428;47.686;16.584;2022-07-23T16:49:06;36.24;34.14
66576;SHT31;53428;47.686;16.584;2022-07-23T16:54:06;36.53;34.08
66576;SHT31;53428;47.686;16.584;2022-07-23T16:59:05;35.67;34.72
66576;SHT31;53428;47.686;16.584;2022-07-23T17:04:04;35.29;35.06
66576;SHT31;53428;47.686;16.584;2022-07-23T17:09:04;34.91;34.85
66576;SHT31;53428;47.686;16.584;2022-07-23T17:14:04;34.95;34.24
66576;SHT31;53428;47.686;16.584;2022-07-23T17:19:04;34.14;35.23
66576;SHT31;53428;47.686;16.584;2022-07-23T17:24:03;32.71;37.55
66576;SHT31;53428;47.686;16.584;2022-07-23T17:29:03;33.21;36.74
66576;SHT31;53428;47.686;16.584;2022-07-23T17:34:02;32.92;37.54
66576;SHT31;53428;47.686;16.584;2022-07-23T17:39:04;31.61;39.88
66576;SHT31;53428;47.686;16.584;2022-07-23T17:44:04;30.61;41.65
66576;SHT31;53428;47.686;16.584;2022-07-23T17:49:03;29.96;43.48
66576;SHT31;53428;47.686;16.584;2022-07-23T17:54:03;29.55;45.16
66576;SHT31;53428;47.686;16.584;2022-07-23T17:59:02;29.32;46.01
66576;SHT31;53428;47.686;16.584;2022-07-23T18:04:03;29.12;46.82
66576;SHT31;53428;47.686;16.584;2022-07-23T18:09:03;28.78;47.79
66576;SHT31;53428;47.686;16.584;2022-07-23T18:14:06;28.57;48.57
66576;SHT31;53428;47.686;16.584;2022-07-23T18:19:06;28.40;49.31
66576;SHT31;53428;47.686;16.584;2022-07-23T18:24:05;28.23;49.73
66576;SHT31;53428;47.686;16.584;2022-07-23T18:29:05;28.05;50.65
66576;SHT31;53428;47.686;16.584;2022-07-23T18:34:04;27.91;51.36
66576;SHT31;53428;47.686;16.584;2022-07-23T18:39:03;27.73;51.92
66576;SHT31;53428;47.686;16.584;2022-07-23T18:44:03;27.64;52.90
66576;SHT31;53428;47.686;16.584;2022-07-23T18:49:03;27.63;53.25
66576;SHT31;53428;47.686;16.584;2022-07-23T18:54:02;27.94;52.42
66576;SHT31;53428;47.686;16.584;2022-07-23T18:59:02;28.01;52.21
66576;SHT31;53428;47.686;16.584;2022-07-23T19:04:01;27.94;52.63
66576;SHT31;53428;47.686;16.584;2022-07-23T19:09:01;27.71;53.39
66576;SHT31;53428;47.686;16.584;2022-07-23T19:14:00;27.51;54.02
66576;SHT31;53428;47.686;16.584;2022-07-23T19:18:59;27.36;54.80
66576;SHT31;53428;47.686;16.584;2022-07-23T19:23:59;27.07;55.76
66576;SHT31;53428;47.686;16.584;2022-07-23T19:28:58;26.86;56.63
66576;SHT31;53428;47.686;16.584;2022-07-23T19:33:57;26.54;57.87
66576;SHT31;53428;47.686;16.584;2022-07-23T19:38:57;26.44;58.05
66576;SHT31;53428;47.686;16.584;2022-07-23T19:43:56;26.37;58.20
66576;SHT31;53428;47.686;16.584;2022-07-23T19:48:55;26.58;56.75
66576;SHT31;53428;47.686;16.584;2022-07-23T19:53:54;26.62;56.14
66576;SHT31;53428;47.686;16.584;2022-07-23T19:58:54;26.64;55.60
66576;SHT31;53428;47.686;16.584;2022-07-23T20:03:53;26.68;55.09
66576;SHT31;53428;47.686;16.584;2022-07-23T20:08:52;26.79;54.48
66576;SHT31;53428;47.686;16.584;2022-07-23T20:13:51;26.69;54.66
66576;SHT31;53428;47.686;16.584;2022-07-23T20:18:51;26.74;54.29
66576;SHT31;53428;47.686;16.584;2022-07-23T20:23:50;26.75;54.15
66576;SHT31;53428;47.686;16.584;2022-07-23T20:28:49;26.62;54.64
66576;SHT31;53428;47.686;16.584;2022-07-23T20:33:49;26.62;54.47
66576;SHT31;53428;47.686;16.584;2022-07-23T20:38:48;26.65;54.65
66576;SHT31;53428;47.686;16.584;2022-07-23T20:43:47;26.59;54.85
66576;SHT31;53428;47.686;16.584;2022-07-23T20:48:47;26.58;54.92
66576;SHT31;53428;47.686;16.584;2022-07-23T20:53:46;26.54;55.00
66576;SHT31;53428;47.686;16.584;2022-07-23T20:58:46;26.48;55.42
66576;SHT31;53428;47.686;16.584;2022-07-23T21:03:46;26.48;55.64
66576;SHT31;53428;47.686;16.584;2022-07-23T21:08:46;26.21;56.65
66576;SHT31;53428;47.686;16.584;2022-07-23T21:13:45;26.13;56.44
66576;SHT31;53428;47.686;16.584;2022-07-23T21:18:45;26.13;56.20
66576;SHT31;53428;47.686;16.584;2022-07-23T21:23:47;26.16;56.03
66576;SHT31;53428;47.686;16.584;2022-07-23T21:28:47;26.20;55.39
66576;SHT31;53428;47.686;16.584;2022-07-23T21:33:46;26.14;55.46
66576;SHT31;53428;47.686;16.584;2022-07-23T21:38:46;26.10;55.35
66576;SHT31;53428;47.686;16.584;2022-07-23T21:43:45;26.07;55.74
66576;SHT31;53428;47.686;16.584;2022-07-23T21:48:45;26.03;55.60
66576;SHT31;53428;47.686;16.584;2022-07-23T21:53:45;26.14;55.46
66576;SHT31;53428;47.686;16.584;2022-07-23T21:58:44;26.06;55.40
66576;SHT31;53428;47.686;16.584;2022-07-23T22:03:43;25.51;58.14
66576;SHT31;53428;47.686;16.584;2022-07-23T22:08:43;24.33;63.23
66576;SHT31;53428;47.686;16.584;2022-07-23T22:13:42;23.53;67.02
66576;SHT31;53428;47.686;16.584;2022-07-23T22:18:42;22.91;69.59
66576;SHT31;53428;47.686;16.584;2022-07-23T22:23:41;22.56;71.40
66576;SHT31;53428;47.686;16.584;2022-07-23T22:28:40;22.16;73.49
66576;SHT31;53428;47.686;16.584;2022-07-23T22:33:40;21.77;76.44
66576;SHT31;53428;47.686;16.584;2022-07-23T22:38:39;21.07;79.90
66576;SHT31;53428;47.686;16.584;2022-07-23T22:43:38;20.76;82.12
66576;SHT31;53428;47.686;16.584;2022-07-23T22:48:38;20.45;85.05
66576;SHT31;53428;47.686;16.584;2022-07-23T22:53:37;20.35;88.19
66576;SHT31;53428;47.686;16.584;2022-07-23T22:58:36;20.07;89.73
66576;SHT31;53428;47.686;16.584;2022-07-23T23:03:36;19.90;92.02
66576;SHT31;53428;47.686;16.584;2022-07-23T23:08:35;19.81;93.11
66576;SHT31;53428;47.686;16.584;2022-07-23T23:13:35;19.76;93.83
66576;SHT31;53428;47.686;16.584;2022-07-23T23:18:34;19.80;93.51
66576;SHT31;53428;47.686;16.584;2022-07-23T23:23:33;19.79;93.46
66576;SHT31;53428;47.686;16.584;2022-07-23T23:28:33;19.72;93.72
66576;SHT31;53428;47.686;16.584;2022-07-23T23:33:34;19.65;94.67
66576;SHT31;53428;47.686;16.584;2022-07-23T23:38:33;19.56;94.79
66576;SHT31;53428;47.686;16.584;2022-07-23T23:43:32;19.55;95.19
66576;SHT31;53428;47.686;16.584;2022-07-23T23:48:32;19.52;95.57
66576;SHT31;53428;47.686;16.584;2022-07-23T23:53:31;19.43;95.92
66576;SHT31;53428;47.686;16.584;2022-07-23T23:58:30;19.49;96.36
